createdAt,value
2023-03-05T00:01:09.028Z,4.40
2023-03-05T00:03:35.375Z,4.10
2023-03-05T00:06:01.794Z,4.13
2023-03-05T00:08:28.470Z,3.83
2023-03-05T00:10:58.423Z,3.40
2023-03-05T00:13:25.005Z,3.60
2023-03-05T00:15:51.345Z,3.60
2023-03-05T00:18:17.605Z,3.60
2023-03-05T00:20:43.890Z,3.43
2023-03-05T00:23:10.162Z,3.77
2023-03-05T00:25:36.735Z,4.00
2023-03-05T00:28:03.634Z,3.77
2023-03-05T00:30:30.818Z,3.50
2023-03-05T00:32:57.114Z,3.20
2023-03-05T00:35:23.439Z,3.83
2023-03-05T00:37:49.925Z,3.23
2023-03-05T00:40:16.487Z,2.77
2023-03-05T00:42:42.726Z,2.80
2023-03-05T00:45:09.360Z,3.47
2023-03-05T00:47:35.666Z,3.40
2023-03-05T00:50:02.611Z,3.50
2023-03-05T00:52:28.947Z,4.00
2023-03-05T00:54:55.244Z,3.17
2023-03-05T00:57:21.750Z,3.23
2023-03-05T00:59:48.194Z,3.03
2023-03-05T01:02:14.466Z,3.03
2023-03-05T01:04:40.857Z,3.00
2023-03-05T01:07:07.094Z,3.10
2023-03-05T01:09:33.302Z,3.00
2023-03-05T01:12:00.421Z,2.90
2023-03-05T01:14:28.258Z,3.37
2023-03-05T01:16:54.571Z,3.00
2023-03-05T01:19:20.824Z,2.63
2023-03-05T01:21:47.036Z,2.63
2023-03-05T01:24:13.302Z,3.20
2023-03-05T01:26:39.577Z,3.17
2023-03-05T01:29:05.907Z,2.40
2023-03-05T01:31:32.191Z,2.87
2023-03-05T01:34:00.182Z,2.60
2023-03-05T01:36:27.448Z,2.67
2023-03-05T01:38:53.788Z,2.60
2023-03-05T01:41:20.959Z,2.50
2023-03-05T01:43:48.141Z,2.40
2023-03-05T01:46:16.654Z,2.23
2023-03-05T01:48:44.312Z,2.77
2023-03-05T01:51:10.566Z,2.37
2023-03-05T01:53:36.948Z,2.03
2023-03-05T01:56:03.321Z,2.27
2023-03-05T01:58:29.588Z,2.73
2023-03-05T02:00:56.050Z,2.10
2023-03-05T02:03:23.581Z,2.00
2023-03-05T02:05:49.892Z,1.97
2023-03-05T02:08:17.670Z,2.30
2023-03-05T02:10:51.617Z,2.20
2023-03-05T02:13:19.579Z,2.27
2023-03-05T02:15:47.623Z,2.30
2023-03-05T02:18:13.920Z,2.47
2023-03-05T02:20:48.280Z,1.90
2023-03-05T02:23:15.015Z,2.13
2023-03-05T02:25:41.228Z,1.83
2023-03-05T02:28:09.258Z,2.40
2023-03-05T02:30:35.958Z,2.40
2023-03-05T02:33:02.241Z,1.90
2023-03-05T02:35:28.598Z,2.20
2023-03-05T02:37:54.897Z,2.20
2023-03-05T02:40:21.256Z,1.77
2023-03-05T02:42:47.473Z,2.10
2023-03-05T02:45:13.797Z,1.97
2023-03-05T02:47:40.043Z,2.17
2023-03-05T02:50:06.744Z,2.40
2023-03-05T02:52:33.103Z,2.03
2023-03-05T02:54:59.316Z,2.90
2023-03-05T02:57:25.598Z,1.87
2023-03-05T02:59:51.948Z,1.93
2023-03-05T03:02:18.332Z,2.17
2023-03-05T03:04:44.805Z,2.30
2023-03-05T03:07:11.852Z,1.60
2023-03-05T03:09:38.847Z,1.90
2023-03-05T03:12:05.798Z,2.00
2023-03-05T03:14:39.332Z,2.10
2023-03-05T03:17:10.052Z,2.33
2023-03-05T03:19:36.862Z,2.00
2023-03-05T03:22:03.594Z,2.17
2023-03-05T03:24:30.796Z,1.90
2023-03-05T03:26:57.023Z,2.03
2023-03-05T03:29:23.381Z,2.10
2023-03-05T03:31:49.682Z,1.83
2023-03-05T03:34:16.314Z,2.00
2023-03-05T03:36:43.785Z,1.73
2023-03-05T03:39:10.468Z,1.90
2023-03-05T03:41:37.410Z,2.33
2023-03-05T03:44:04.950Z,1.77
2023-03-05T03:46:31.454Z,1.70
2023-03-05T03:48:57.729Z,1.70
2023-03-05T03:51:24.962Z,2.03
2023-03-05T03:53:51.229Z,1.60
2023-03-05T03:56:17.485Z,1.57
2023-03-05T03:58:44.047Z,1.90
2023-03-05T04:01:10.480Z,1.80
2023-03-05T04:03:36.746Z,1.90
2023-03-05T04:06:03.333Z,1.93
2023-03-05T04:08:29.576Z,2.03
2023-03-05T04:10:55.795Z,2.00
2023-03-05T04:13:22.013Z,2.00
2023-03-05T04:15:48.317Z,1.67
2023-03-05T04:18:14.563Z,1.83
2023-03-05T04:20:40.875Z,2.10
2023-03-05T04:23:07.124Z,1.63
2023-03-05T04:25:33.345Z,1.80
2023-03-05T04:27:59.565Z,1.73
2023-03-05T04:30:25.779Z,1.70
2023-03-05T04:32:52.050Z,1.67
2023-03-05T04:35:19.045Z,1.90
2023-03-05T04:37:45.294Z,1.87
2023-03-05T04:40:11.750Z,1.90
2023-03-05T04:42:38.061Z,1.50
2023-03-05T04:45:04.871Z,1.87
2023-03-05T04:47:31.117Z,1.97
2023-03-05T04:49:57.374Z,1.87
2023-03-05T04:52:23.626Z,1.67
2023-03-05T04:54:49.850Z,1.67
2023-03-05T04:57:16.197Z,1.70
2023-03-05T04:59:42.433Z,2.00
2023-03-05T05:02:08.716Z,1.50
2023-03-05T05:04:36.080Z,1.87
2023-03-05T05:07:02.419Z,1.40
2023-03-05T05:09:28.720Z,1.47
2023-03-05T05:11:54.994Z,1.60
2023-03-05T05:14:21.522Z,1.60
2023-03-05T05:16:47.843Z,1.90
2023-03-05T05:19:14.167Z,1.87
2023-03-05T05:21:40.546Z,1.50
2023-03-05T05:24:06.904Z,1.67
2023-03-05T05:26:33.128Z,1.60
2023-03-05T05:28:59.426Z,1.50
2023-03-05T05:31:25.741Z,1.53
2023-03-05T05:33:52.084Z,2.03
2023-03-05T05:36:19.254Z,2.33
2023-03-05T05:38:45.898Z,1.60
2023-03-05T05:41:13.369Z,1.57
2023-03-05T05:43:40.098Z,1.70
2023-03-05T05:46:08.234Z,2.03
2023-03-05T05:48:35.178Z,1.60
2023-03-05T05:51:05.319Z,1.80
2023-03-05T05:53:31.561Z,1.80
2023-03-05T05:55:57.804Z,1.90
2023-03-05T05:58:24.022Z,2.00
2023-03-05T06:00:50.315Z,1.80
2023-03-05T06:03:16.638Z,1.70
2023-03-05T06:05:43.275Z,1.70
2023-03-05T06:08:09.802Z,2.60
2023-03-05T06:10:36.106Z,2.23
2023-03-05T06:13:02.344Z,1.70
2023-03-05T06:15:28.630Z,2.03
2023-03-05T06:17:54.864Z,1.87
2023-03-05T06:20:21.220Z,1.90
2023-03-05T06:22:47.545Z,2.20
2023-03-05T06:25:13.793Z,1.67
2023-03-05T06:27:40.232Z,1.83
2023-03-05T06:30:06.775Z,1.87
2023-03-05T06:32:33.135Z,2.03
2023-03-05T06:34:59.401Z,1.97
2023-03-05T06:37:25.788Z,1.90
2023-03-05T06:39:52.054Z,2.00
2023-03-05T06:42:19.313Z,1.93
2023-03-05T06:44:47.250Z,1.80
2023-03-05T06:47:14.578Z,1.80
2023-03-05T06:49:40.931Z,1.80
2023-03-05T06:52:07.373Z,1.57
2023-03-05T06:54:33.596Z,1.90
2023-03-05T06:56:59.886Z,1.43
2023-03-05T06:59:26.130Z,1.93
2023-03-05T07:01:52.370Z,1.90
2023-03-05T07:04:18.648Z,1.87
2023-03-05T07:06:45.315Z,1.70
2023-03-05T07:09:14.259Z,1.70
2023-03-05T07:11:40.698Z,1.70
2023-03-05T07:14:07.467Z,1.50
2023-03-05T07:16:34.394Z,1.73
2023-03-05T07:19:02.779Z,1.87
2023-03-05T07:21:30.238Z,1.67
2023-03-05T07:23:57.733Z,1.67
2023-03-05T07:26:24.168Z,1.57
2023-03-05T07:28:50.414Z,1.57
2023-03-05T07:31:19.206Z,1.80
2023-03-05T07:33:46.146Z,1.80
2023-03-05T07:36:12.398Z,1.60
2023-03-05T07:38:38.651Z,1.80
2023-03-05T07:41:06.136Z,1.37
2023-03-05T07:43:32.713Z,1.30
2023-03-05T07:45:59.243Z,1.53
2023-03-05T07:48:25.692Z,1.70
2023-03-05T07:51:00.136Z,1.23
2023-03-05T07:53:26.381Z,1.53
2023-03-05T07:55:52.608Z,1.60
2023-03-05T07:58:18.830Z,1.40
2023-03-05T08:00:45.035Z,1.70
2023-03-05T08:03:11.269Z,1.40
2023-03-05T08:05:40.769Z,1.50
2023-03-05T08:08:07.448Z,1.33
2023-03-05T08:10:34.148Z,1.73
2023-03-05T08:13:00.422Z,1.67
2023-03-05T08:15:26.708Z,1.73
2023-03-05T08:17:52.940Z,1.63
2023-03-05T08:20:19.260Z,1.53
2023-03-05T08:22:46.205Z,1.90
2023-03-05T08:25:12.702Z,2.37
2023-03-05T08:27:40.298Z,1.70
2023-03-05T08:30:07.275Z,1.53
2023-03-05T08:32:33.554Z,1.60
2023-03-05T08:34:59.793Z,1.47
2023-03-05T08:37:26.056Z,2.00
2023-03-05T08:39:52.507Z,1.10
2023-03-05T08:42:18.769Z,1.50
2023-03-05T08:44:45.026Z,1.30
2023-03-05T08:47:11.279Z,1.50
2023-03-05T08:49:37.552Z,1.43
2023-03-05T08:52:03.836Z,1.40
2023-03-05T08:54:30.071Z,1.40
2023-03-05T08:56:56.337Z,1.43
2023-03-05T08:59:22.579Z,1.30
2023-03-05T09:01:48.916Z,1.60
2023-03-05T09:04:15.681Z,1.30
2023-03-05T09:06:41.907Z,1.90
2023-03-05T09:09:08.578Z,1.33
2023-03-05T09:11:36.134Z,1.77
2023-03-05T09:14:06.155Z,1.80
2023-03-05T09:16:33.026Z,1.70
2023-03-05T09:18:59.360Z,1.50
2023-03-05T09:21:26.131Z,1.57
2023-03-05T09:23:52.413Z,1.30
2023-03-05T09:26:21.735Z,1.50
2023-03-05T09:28:48.232Z,1.37
2023-03-05T09:31:14.558Z,1.40
2023-03-05T09:33:41.135Z,1.50
2023-03-05T09:36:21.185Z,1.60
2023-03-05T09:38:47.477Z,1.60
2023-03-05T09:41:16.250Z,1.90
2023-03-05T09:43:59.466Z,1.27
2023-03-05T09:46:28.913Z,1.40
2023-03-05T09:49:18.640Z,2.00
2023-03-05T09:51:46.666Z,1.93
2023-03-05T09:54:21.472Z,1.77
2023-03-05T09:56:49.955Z,1.57
2023-03-05T09:59:28.568Z,1.60
2023-03-05T10:01:59.468Z,1.50
2023-03-05T10:04:28.340Z,1.43
2023-03-05T10:06:57.742Z,1.83
2023-03-05T10:09:42.932Z,1.70
2023-03-05T10:12:14.714Z,1.37
2023-03-05T10:14:41.264Z,1.60
2023-03-05T10:17:15.778Z,1.73
2023-03-05T10:20:03.018Z,1.50
2023-03-05T10:22:33.820Z,1.90
2023-03-05T10:25:09.806Z,2.40
2023-03-05T10:27:45.234Z,1.57
2023-03-05T10:30:31.855Z,1.57
2023-03-05T10:33:04.774Z,1.67
2023-03-05T10:35:34.149Z,1.90
2023-03-05T10:38:08.617Z,1.67
2023-03-05T10:40:34.840Z,1.50
2023-03-05T10:43:05.680Z,1.43
2023-03-05T10:45:36.465Z,1.60
2023-03-05T10:48:11.444Z,1.70
2023-03-05T10:50:44.173Z,1.83
2023-03-05T10:53:10.472Z,1.60
2023-03-05T10:55:36.700Z,1.57
2023-03-05T10:58:10.753Z,1.43
2023-03-05T11:00:37.041Z,1.47
2023-03-05T11:03:07.764Z,1.53
2023-03-05T11:05:37.203Z,1.50
2023-03-05T11:08:22.759Z,1.70
2023-03-05T11:11:03.784Z,1.83
2023-03-05T11:13:30.289Z,1.77
2023-03-05T11:16:04.078Z,1.60
2023-03-05T11:18:36.414Z,1.80
2023-03-05T11:21:07.504Z,2.10
2023-03-05T11:23:33.751Z,1.60
2023-03-05T11:26:01.352Z,2.10
2023-03-05T11:28:33.941Z,1.93
2023-03-05T11:31:02.093Z,1.87
2023-03-05T11:33:28.706Z,1.87
2023-03-05T11:36:11.834Z,2.03
2023-03-05T11:38:45.482Z,2.00
2023-03-05T11:41:11.906Z,2.20
2023-03-05T11:43:41.518Z,2.00
2023-03-05T11:46:10.037Z,2.37
2023-03-05T11:48:37.486Z,2.00
2023-03-05T11:51:08.413Z,1.93
2023-03-05T11:53:36.806Z,2.00
2023-03-05T11:56:13.382Z,1.90
2023-03-05T11:58:43.607Z,1.83
2023-03-05T12:01:15.924Z,1.80
2023-03-05T12:03:42.512Z,2.03
2023-03-05T12:06:14.945Z,1.97
2023-03-05T12:08:44.222Z,1.80
2023-03-05T12:11:19.065Z,2.43
2023-03-05T12:13:48.407Z,1.67
2023-03-05T12:16:20.217Z,2.10
2023-03-05T12:18:54.461Z,1.70
2023-03-05T12:21:23.887Z,1.87
2023-03-05T12:23:51.919Z,2.30
2023-03-05T12:26:18.362Z,1.90
2023-03-05T12:28:49.887Z,1.70
2023-03-05T12:31:34.262Z,1.60
2023-03-05T12:34:20.479Z,1.53
2023-03-05T12:36:46.803Z,1.93
2023-03-05T12:39:31.681Z,2.50
2023-03-05T12:41:57.898Z,1.87
2023-03-05T12:44:24.226Z,1.80
2023-03-05T12:47:16.726Z,1.90
2023-03-05T12:49:44.604Z,1.93
2023-03-05T12:52:20.779Z,2.00
2023-03-05T12:54:55.273Z,1.90
2023-03-05T12:57:23.999Z,2.20
2023-03-05T12:59:54.353Z,1.80
2023-03-05T13:02:23.196Z,1.80
2023-03-05T13:04:52.574Z,2.20
2023-03-05T13:07:19.229Z,2.37
2023-03-05T13:09:55.884Z,2.07
2023-03-05T13:12:23.068Z,2.10
2023-03-05T13:14:55.163Z,2.33
2023-03-05T13:17:30.557Z,2.20
2023-03-05T13:19:57.575Z,1.50
2023-03-05T13:22:24.661Z,2.27
2023-03-05T13:25:23.614Z,2.23
2023-03-05T13:27:49.896Z,1.77
2023-03-05T13:30:23.565Z,2.00
2023-03-05T13:32:51.987Z,2.00
2023-03-05T13:35:19.738Z,2.00
2023-03-05T13:37:46.529Z,2.07
2023-03-05T13:40:23.941Z,1.77
2023-03-05T13:42:50.578Z,1.87
2023-03-05T13:45:25.328Z,1.73
2023-03-05T13:47:58.898Z,1.87
2023-03-05T13:50:29.407Z,1.63
2023-03-05T13:52:56.545Z,1.40
2023-03-05T13:55:23.682Z,1.77
2023-03-05T13:57:51.506Z,1.53
2023-03-05T14:00:31.837Z,1.67
2023-03-05T14:03:00.738Z,1.50
2023-03-05T14:05:27.775Z,1.67
2023-03-05T14:07:55.176Z,1.80
2023-03-05T14:10:29.316Z,1.90
2023-03-05T14:12:56.573Z,1.57
2023-03-05T14:15:24.374Z,1.73
2023-03-05T14:17:51.257Z,1.80
2023-03-05T14:20:25.847Z,1.60
2023-03-05T14:22:53.509Z,1.70
2023-03-05T14:25:26.700Z,1.60
2023-03-05T14:27:53.080Z,1.70
2023-03-05T14:30:20.751Z,1.57
2023-03-05T14:32:47.258Z,1.77
2023-03-05T14:35:21.439Z,1.80
2023-03-05T14:37:49.678Z,1.83
2023-03-05T14:40:16.832Z,1.70
2023-03-05T14:42:49.890Z,1.60
2023-03-05T14:45:17.375Z,1.40
2023-03-05T14:47:43.894Z,1.50
2023-03-05T14:50:14.597Z,2.10
2023-03-05T14:52:41.693Z,1.83
2023-03-05T14:55:13.507Z,1.80
2023-03-05T14:57:39.763Z,1.73
2023-03-05T15:00:14.902Z,1.80
2023-03-05T15:02:41.203Z,1.30
2023-03-05T15:07:34.891Z,1.43
2023-03-05T15:10:01.175Z,1.60
2023-03-05T15:12:27.517Z,1.40
2023-03-05T15:14:54.739Z,1.30
2023-03-05T15:17:22.262Z,1.50
2023-03-05T15:19:48.547Z,1.53
2023-03-05T15:22:15.108Z,1.60
2023-03-05T15:24:41.602Z,1.33
2023-03-05T15:27:07.878Z,1.70
2023-03-05T15:29:34.271Z,1.83
2023-03-05T15:32:01.694Z,1.70
2023-03-05T15:34:28.576Z,1.90
2023-03-05T15:36:55.815Z,1.60
2023-03-05T15:39:24.718Z,1.60
2023-03-05T15:41:51.452Z,2.13
2023-03-05T15:44:17.801Z,1.67
2023-03-05T15:46:44.195Z,1.50
2023-03-05T15:49:10.680Z,1.80
2023-03-05T15:51:36.953Z,1.60
2023-03-05T15:54:03.189Z,1.90
2023-03-05T15:56:29.462Z,1.87
2023-03-05T15:58:56.190Z,1.53
2023-03-05T16:01:23.391Z,1.57
2023-03-05T16:03:50.433Z,1.80
2023-03-05T16:06:20.570Z,1.67
2023-03-05T16:08:47.181Z,1.40
2023-03-05T16:11:13.567Z,1.33
2023-03-05T16:13:40.724Z,1.47
2023-03-05T16:16:07.287Z,1.40
2023-03-05T16:18:34.416Z,1.90
2023-03-05T16:21:00.779Z,1.83
2023-03-05T16:23:27.004Z,1.73
2023-03-05T16:25:53.296Z,1.30
2023-03-05T16:28:19.549Z,1.60
2023-03-05T16:30:51.750Z,1.83
2023-03-05T16:33:17.959Z,1.67
2023-03-05T16:35:44.295Z,2.07
2023-03-05T16:38:10.552Z,1.20
2023-03-05T16:41:02.878Z,1.33
2023-03-05T16:43:24.314Z,1.67
2023-03-05T16:45:50.546Z,1.67
2023-03-05T16:48:16.767Z,1.57
2023-03-05T16:50:43.015Z,1.80
2023-03-05T16:53:09.252Z,1.40
2023-03-05T16:55:36.776Z,1.80
2023-03-05T16:58:03.279Z,1.50
2023-03-05T17:00:29.532Z,1.70
2023-03-05T17:02:55.806Z,1.60
2023-03-05T17:05:28.129Z,2.03
2023-03-05T17:07:55.678Z,1.43
2023-03-05T17:10:22.111Z,1.50
2023-03-05T17:12:48.411Z,1.60
2023-03-05T17:15:14.633Z,1.70
2023-03-05T17:17:40.955Z,1.70
2023-03-05T17:20:07.764Z,1.30
2023-03-05T17:22:34.014Z,1.73
2023-03-05T17:25:00.232Z,1.90
2023-03-05T17:27:26.593Z,1.70
2023-03-05T17:29:52.851Z,1.80
2023-03-05T17:32:19.139Z,1.67
2023-03-05T17:34:46.275Z,6.33
2023-03-05T17:37:12.972Z,5.27
2023-03-05T17:39:39.432Z,2.97
2023-03-05T17:42:05.693Z,2.50
2023-03-05T17:44:32.100Z,1.90
2023-03-05T17:46:58.333Z,1.90
2023-03-05T17:49:24.556Z,2.10
2023-03-05T17:57:45.161Z,2.13
2023-03-05T18:00:19.294Z,1.80
2023-03-05T18:02:45.896Z,1.73
2023-03-05T18:05:13.066Z,1.90
2023-03-05T18:07:39.611Z,1.83
2023-03-05T18:10:06.461Z,1.70
2023-03-05T18:12:32.995Z,2.20
2023-03-05T18:14:59.321Z,2.10
2023-03-05T18:17:25.545Z,2.50
2023-03-05T18:19:52.342Z,2.27
2023-03-05T18:22:18.627Z,2.50
2023-03-05T18:24:44.845Z,2.20
2023-03-05T18:27:11.058Z,2.50
2023-03-05T18:29:37.280Z,1.83
2023-03-05T18:32:03.585Z,2.17
2023-03-05T18:34:29.862Z,2.30
2023-03-05T18:36:56.122Z,2.20
2023-03-05T18:39:22.385Z,2.00
2023-03-05T18:41:48.664Z,2.17
2023-03-05T18:44:15.209Z,2.10
2023-03-05T18:46:41.733Z,2.03
2023-03-05T18:49:09.432Z,1.93
2023-03-05T18:51:36.025Z,2.40
2023-03-05T18:54:03.412Z,2.40
2023-03-05T18:56:29.890Z,2.50
2023-03-05T18:58:57.908Z,2.20
2023-03-05T19:01:25.126Z,2.20
2023-03-05T19:03:51.572Z,2.13
2023-03-05T19:06:18.132Z,2.30
2023-03-05T19:08:44.937Z,2.17
2023-03-05T19:11:16.142Z,2.10
2023-03-05T19:13:48.895Z,2.27
2023-03-05T19:16:17.790Z,2.03
2023-03-05T19:19:02.259Z,2.10
2023-03-05T19:21:31.634Z,2.50
2023-03-05T19:23:57.924Z,2.73
2023-03-05T19:26:24.239Z,2.67
2023-03-05T19:28:50.459Z,2.63
2023-03-05T19:31:16.856Z,2.60
2023-03-05T19:33:43.145Z,2.77
2023-03-05T19:36:10.680Z,2.97
2023-03-05T19:38:37.218Z,2.87
2023-03-05T19:41:03.599Z,2.70
2023-03-05T19:43:29.821Z,2.83
2023-03-05T19:46:03.604Z,3.27
2023-03-05T19:48:30.476Z,3.00
2023-03-05T19:50:57.647Z,3.20
2023-03-05T19:53:23.966Z,3.20
2023-03-05T19:55:50.268Z,3.07
2023-03-05T19:58:17.053Z,2.97
2023-03-05T20:00:43.281Z,2.67
2023-03-05T20:03:09.686Z,3.97
2023-03-05T20:05:36.754Z,3.47
2023-03-05T20:08:02.966Z,3.57
2023-03-05T20:10:29.236Z,5.20
2023-03-05T20:12:57.655Z,3.93
2023-03-05T20:15:29.086Z,4.30
2023-03-05T20:17:58.395Z,4.10
2023-03-05T20:20:24.946Z,3.90
2023-03-05T20:22:51.204Z,3.67
2023-03-05T20:25:18.057Z,3.93
2023-03-05T20:27:44.294Z,5.17
2023-03-05T20:30:14.227Z,3.90
2023-03-05T20:32:40.939Z,3.73
2023-03-05T20:35:08.188Z,4.77
2023-03-05T20:37:40.142Z,4.10
2023-03-05T20:40:07.401Z,3.93
2023-03-05T20:42:33.617Z,4.05
2023-03-05T20:44:59.879Z,3.90
2023-03-05T20:47:36.069Z,3.73
2023-03-05T20:50:02.278Z,4.70
2023-03-05T20:52:28.529Z,3.67
2023-03-05T20:54:54.822Z,3.30
2023-03-05T20:57:21.118Z,4.10
2023-03-05T20:59:47.341Z,3.90
2023-03-05T21:02:13.611Z,3.50
2023-03-05T21:04:39.864Z,3.20
2023-03-05T21:07:06.160Z,3.33
2023-03-05T21:09:32.388Z,3.00
2023-03-05T21:11:58.632Z,3.90
2023-03-05T21:14:24.873Z,4.37
2023-03-05T21:16:51.108Z,4.63
2023-03-05T21:19:17.385Z,3.73
2023-03-05T21:21:45.784Z,3.97
2023-03-05T21:24:12.491Z,4.20
2023-03-05T21:26:38.705Z,5.70
2023-03-05T21:29:04.917Z,3.70
2023-03-05T21:31:31.211Z,4.10
2023-03-05T21:33:57.601Z,5.87
2023-03-05T21:36:23.961Z,4.73
2023-03-05T21:38:50.204Z,4.73
2023-03-05T21:41:18.149Z,3.80
2023-03-05T21:43:44.488Z,4.20
2023-03-05T21:46:11.012Z,4.27
2023-03-05T21:48:37.342Z,4.43
2023-03-05T21:51:07.542Z,3.83
2023-03-05T21:53:33.755Z,4.07
2023-03-05T21:56:10.843Z,3.57
2023-03-05T21:58:37.044Z,3.97
2023-03-05T22:01:03.392Z,3.93
2023-03-05T22:03:30.209Z,4.07
2023-03-05T22:05:56.906Z,3.23
2023-03-05T22:08:23.194Z,3.63
2023-03-05T22:10:49.605Z,3.70
2023-03-05T22:13:17.636Z,3.67
2023-03-05T22:15:48.345Z,3.03
2023-03-05T22:18:18.930Z,3.20
2023-03-05T22:20:45.761Z,3.43
2023-03-05T22:23:12.375Z,3.27
2023-03-05T22:25:39.097Z,3.17
2023-03-05T22:28:05.846Z,2.90
2023-03-05T22:30:32.457Z,2.97
2023-03-05T22:32:59.323Z,2.63
2023-03-05T22:35:25.641Z,2.50
2023-03-05T22:37:51.920Z,2.70
2023-03-05T22:40:19.617Z,2.80
2023-03-05T22:42:45.901Z,2.70
2023-03-05T22:45:16.872Z,3.10
2023-03-05T22:47:45.410Z,2.50
2023-03-05T22:50:11.864Z,2.47
2023-03-05T22:52:38.131Z,2.83
2023-03-05T22:55:05.312Z,2.40
2023-03-05T22:57:31.964Z,2.67
2023-03-05T22:59:58.223Z,2.70
2023-03-05T23:02:24.460Z,2.77
2023-03-05T23:04:54.757Z,3.60
2023-03-05T23:07:22.791Z,2.90
2023-03-05T23:09:59.693Z,2.37
2023-03-05T23:12:27.323Z,2.77
2023-03-05T23:14:53.638Z,2.30
2023-03-05T23:17:20.094Z,2.60
2023-03-05T23:19:46.358Z,2.60
2023-03-05T23:22:13.305Z,2.70
2023-03-05T23:24:39.969Z,2.97
2023-03-05T23:27:06.787Z,3.13
2023-03-05T23:29:47.069Z,3.10
2023-03-05T23:32:13.363Z,3.40
2023-03-05T23:34:39.657Z,3.23
2023-03-05T23:37:06.542Z,2.83
2023-03-05T23:39:32.766Z,3.30
2023-03-05T23:41:58.996Z,3.37
2023-03-05T23:44:25.224Z,3.40
2023-03-05T23:46:51.462Z,4.00
2023-03-05T23:49:17.698Z,4.30
2023-03-05T23:51:43.972Z,4.50
2023-03-05T23:54:10.191Z,4.83
2023-03-05T23:56:36.423Z,4.10
2023-03-05T23:59:02.646Z,4.60
